Time;durP1;ratioP1;P1;durP2;ratioP2;P2;SDS_P1;SDS_P2;PMS_P1;PMS_P2;Temp;Humidity;BMP_temperature;BMP_pressure;BME280_temperature;BME280_humidity;BME280_pressure;Samples;Min_cycle;Max_cycle;Signal;HPM_P1;HPM_P2
2021/08/05 00:01:18;;;;;;;0.70;0.40;;;18.20;99.90;;;;;;5115652;28;20420;-65
2021/08/05 00:03:45;;;;;;;0.70;0.50;;;18.10;99.90;;;;;;5115818;27;20432;-65
2021/08/05 00:06:12;;;;;;;0.70;0.50;;;18.00;99.90;;;;;;5116037;28;20408;-65
2021/08/05 00:08:39;;;;;;;0.70;0.40;;;18.10;99.90;;;;;;5114059;28;20998;-65
2021/08/05 00:11:06;;;;;;;0.70;0.50;;;18.20;99.90;;;;;;5113999;28;20507;-65
2021/08/05 00:13:33;;;;;;;0.60;0.40;;;18.30;99.90;;;;;;5114413;28;20416;-65
2021/08/05 00:16:02;;;;;;;0.80;0.40;;;18.50;99.90;;;;;;5115981;28;20827;-66
2021/08/05 00:18:28;;;;;;;0.85;0.40;;;18.60;99.90;;;;;;5116566;28;20504;-65
2021/08/05 00:20:55;;;;;;;1.10;0.40;;;18.70;99.90;;;;;;5117063;28;20424;-65
2021/08/05 00:23:22;;;;;;;0.60;0.40;;;18.80;99.90;;;;;;5115281;28;20499;-65
2021/08/05 00:25:49;;;;;;;0.70;0.45;;;18.80;99.90;;;;;;5117127;28;20510;-66
2021/08/05 00:28:16;;;;;;;0.85;0.40;;;18.80;99.90;;;;;;5116726;28;20435;-65
2021/08/05 00:30:43;;;;;;;2.30;0.50;;;18.80;99.90;;;;;;5116855;28;20836;-65
2021/08/05 00:33:11;;;;;;;1.80;0.50;;;18.80;99.90;;;;;;5116508;28;20518;-65
2021/08/05 00:35:38;;;;;;;0.90;0.50;;;18.70;99.90;;;;;;5117902;28;20420;-65
2021/08/05 00:38:05;;;;;;;0.70;0.47;;;18.60;99.90;;;;;;5117222;28;20510;-65
2021/08/05 00:40:32;;;;;;;0.55;0.40;;;18.50;99.90;;;;;;5116942;28;20422;-65
2021/08/05 00:42:58;;;;;;;1.50;0.50;;;18.40;99.90;;;;;;5115287;28;20418;-65
2021/08/05 00:45:26;;;;;;;0.70;0.50;;;18.40;99.90;;;;;;5116932;28;20426;-65
2021/08/05 00:47:52;;;;;;;0.73;0.50;;;18.30;99.90;;;;;;5116617;28;20424;-65
2021/08/05 00:50:21;;;;;;;0.70;0.50;;;18.20;99.90;;;;;;5116673;28;20828;-65
2021/08/05 00:52:47;;;;;;;1.70;0.50;;;18.00;99.90;;;;;;5116975;28;20842;-65
2021/08/05 00:55:15;;;;;;;0.60;0.40;;;17.90;99.90;;;;;;5118013;28;20527;-65
2021/08/05 00:57:41;;;;;;;0.70;0.40;;;18.00;99.90;;;;;;5117891;28;20423;-65
2021/08/05 01:00:11;;;;;;;0.60;0.40;;;18.20;99.90;;;;;;5118128;28;20499;-65
2021/08/05 01:02:44;;;;;;;0.60;0.50;;;18.40;99.90;;;;;;5116239;28;20416;-65
2021/08/05 01:05:11;;;;;;;0.70;0.50;;;18.60;99.90;;;;;;5116315;28;20446;-65
2021/08/05 01:07:50;;;;;;;0.70;0.40;;;18.40;99.90;;;;;;5115208;28;20420;-65
2021/08/05 01:10:24;;;;;;;1.10;0.60;;;18.20;99.90;;;;;;5115964;28;20422;-65
2021/08/05 01:12:59;;;;;;;0.80;0.50;;;18.00;99.90;;;;;;5115939;28;20820;-65
2021/08/05 01:15:28;;;;;;;0.70;0.50;;;17.90;99.90;;;;;;5115428;28;20429;-65
2021/08/05 01:17:59;;;;;;;0.70;0.40;;;18.00;99.90;;;;;;5116968;28;20419;-65
2021/08/05 01:20:27;;;;;;;0.50;0.40;;;18.20;99.90;;;;;;5117320;28;20424;-65
2021/08/05 01:23:05;;;;;;;1.00;0.40;;;18.30;99.90;;;;;;5117175;28;20416;-65
2021/08/05 01:25:38;;;;;;;0.80;0.40;;;18.10;99.90;;;;;;5115806;28;20434;-65
2021/08/05 01:28:07;;;;;;;0.60;0.40;;;18.00;99.90;;;;;;5116985;28;20493;-65
2021/08/05 01:30:36;;;;;;;1.10;0.40;;;17.80;99.90;;;;;;5117506;28;20427;-64
2021/08/05 01:33:03;;;;;;;2.10;0.40;;;17.70;99.90;;;;;;5117450;28;20424;-66
2021/08/05 01:35:31;;;;;;;1.63;0.50;;;17.70;99.90;;;;;;5116916;28;20903;-65
2021/08/05 01:38:01;;;;;;;1.20;0.50;;;17.50;99.90;;;;;;5116675;28;20408;-65
2021/08/05 01:40:29;;;;;;;0.70;0.50;;;17.30;99.90;;;;;;5116655;28;20843;-65
2021/08/05 01:42:58;;;;;;;1.00;0.50;;;17.20;99.90;;;;;;5116095;28;20412;-65
2021/08/05 01:45:27;;;;;;;0.80;0.50;;;17.20;99.90;;;;;;5117053;28;20431;-65
2021/08/05 01:47:55;;;;;;;1.30;1.00;;;17.30;99.90;;;;;;5116629;28;20426;-65
2021/08/05 01:50:22;;;;;;;0.85;0.50;;;17.40;99.90;;;;;;5116918;28;20727;-65
2021/08/05 01:52:50;;;;;;;1.35;0.40;;;17.60;99.90;;;;;;5116552;28;20460;-65
2021/08/05 01:55:17;;;;;;;0.90;0.50;;;17.60;99.90;;;;;;5116560;28;20421;-65
2021/08/05 01:57:44;;;;;;;0.80;0.50;;;17.70;99.90;;;;;;5114951;28;20416;-65
2021/08/05 02:00:12;;;;;;;0.65;0.50;;;17.80;99.90;;;;;;5114870;28;20519;-65
2021/08/05 02:02:40;;;;;;;0.80;0.50;;;17.90;99.90;;;;;;5115842;28;20783;-65
2021/08/05 02:05:09;;;;;;;0.80;0.50;;;18.00;99.90;;;;;;5115575;28;20431;-65
2021/08/05 02:07:49;;;;;;;0.80;0.50;;;18.10;99.90;;;;;;5115392;28;20412;-65
2021/08/05 02:10:21;;;;;;;1.50;0.50;;;18.20;99.90;;;;;;5113901;28;20518;-65
2021/08/05 02:12:54;;;;;;;0.70;0.45;;;18.20;99.90;;;;;;5115266;28;20412;-65
2021/08/05 02:15:21;;;;;;;0.90;0.50;;;18.10;99.90;;;;;;5115766;28;20542;-65
2021/08/05 02:17:51;;;;;;;0.60;0.40;;;18.10;99.90;;;;;;5115556;28;20503;-65
2021/08/05 02:20:18;;;;;;;0.80;0.50;;;18.10;99.90;;;;;;5114918;28;20432;-65
2021/08/05 02:22:46;;;;;;;0.93;0.50;;;18.10;99.90;;;;;;5115838;28;20417;-64
2021/08/05 02:25:14;;;;;;;0.68;0.50;;;18.10;99.90;;;;;;5114852;28;20423;-65
2021/08/05 02:27:42;;;;;;;1.13;0.50;;;18.00;99.90;;;;;;5115838;28;20408;-65
2021/08/05 02:30:11;;;;;;;0.70;0.50;;;18.00;99.90;;;;;;5115932;28;20818;-65
2021/08/05 02:32:39;;;;;;;1.10;0.50;;;17.90;99.90;;;;;;5115796;28;20416;-65
2021/08/05 02:35:10;;;;;;;1.13;0.50;;;17.90;99.90;;;;;;5115646;28;20430;-64
2021/08/05 02:37:38;;;;;;;0.97;0.87;;;17.80;99.90;;;;;;5114092;28;20415;-65
2021/08/05 02:40:06;;;;;;;1.50;0.50;;;17.90;99.90;;;;;;5114934;28;20698;-65
2021/08/05 02:42:35;;;;;;;1.00;0.50;;;17.80;99.90;;;;;;5115537;28;20507;-65
2021/08/05 02:45:02;;;;;;;0.80;0.47;;;17.70;99.90;;;;;;5113850;28;20514;-65
2021/08/05 02:47:29;;;;;;;0.90;0.50;;;17.50;99.90;;;;;;5113838;28;20419;-65
2021/08/05 02:49:57;;;;;;;0.70;0.50;;;17.60;99.90;;;;;;5112675;28;20493;-65
2021/08/05 02:52:27;;;;;;;1.00;0.50;;;17.60;99.90;;;;;;5112998;28;20424;-64
2021/08/05 02:54:55;;;;;;;0.70;0.55;;;17.70;99.90;;;;;;5113927;28;20428;-65
2021/08/05 02:57:22;;;;;;;1.10;0.50;;;17.70;99.90;;;;;;5113990;28;20796;-65
2021/08/05 02:59:50;;;;;;;0.70;0.50;;;17.50;99.90;;;;;;5115533;28;20420;-65
2021/08/05 03:02:17;;;;;;;1.40;0.50;;;17.50;99.90;;;;;;5114987;28;20420;-65
2021/08/05 03:04:44;;;;;;;1.40;0.50;;;17.60;99.90;;;;;;5114218;28;20723;-65
2021/08/05 03:07:12;;;;;;;0.77;0.50;;;17.60;99.90;;;;;;5114430;28;20424;-65
2021/08/05 03:09:40;;;;;;;1.40;0.50;;;17.50;99.90;;;;;;5113629;28;21083;-64
2021/08/05 03:12:07;;;;;;;0.70;0.50;;;17.50;99.90;;;;;;5113900;28;20481;-65
2021/08/05 03:14:34;;;;;;;0.85;0.50;;;17.50;99.90;;;;;;5113217;28;20523;-64
2021/08/05 03:17:01;;;;;;;0.85;0.55;;;17.60;99.90;;;;;;5112573;28;20412;-64
2021/08/05 03:19:29;;;;;;;0.70;0.40;;;17.60;99.90;;;;;;5113280;28;20420;-65
2021/08/05 03:21:55;;;;;;;1.10;0.50;;;17.80;99.90;;;;;;5112463;28;20428;-65
2021/08/05 03:24:22;;;;;;;1.07;0.50;;;17.80;99.90;;;;;;5111314;28;20514;-65
2021/08/05 03:26:50;;;;;;;0.80;0.60;;;17.60;99.90;;;;;;5112451;28;20866;-65
2021/08/05 03:29:17;;;;;;;0.80;0.60;;;17.40;99.90;;;;;;5112264;28;20610;-64
2021/08/05 03:31:44;;;;;;;1.00;0.60;;;17.30;99.90;;;;;;5117931;28;20499;-65
2021/08/05 03:34:11;;;;;;;0.95;0.57;;;17.20;99.90;;;;;;5118640;27;20507;-65
2021/08/05 03:36:38;;;;;;;0.70;0.50;;;17.30;99.90;;;;;;5119198;27;20753;-65
2021/08/05 03:39:05;;;;;;;0.90;0.60;;;17.40;99.90;;;;;;5120018;27;20422;-65
2021/08/05 03:41:32;;;;;;;0.90;0.60;;;17.60;99.90;;;;;;5120853;28;20437;-65
2021/08/05 03:44:00;;;;;;;0.82;0.60;;;17.50;99.90;;;;;;5121125;28;20514;-65
2021/08/05 03:46:27;;;;;;;0.80;0.50;;;17.20;99.90;;;;;;5120230;27;20844;-65
2021/08/05 03:48:54;;;;;;;0.70;0.50;;;17.20;99.90;;;;;;5118448;28;20432;-65
2021/08/05 03:51:21;;;;;;;0.80;0.60;;;17.30;99.90;;;;;;5120422;28;20415;-64
2021/08/05 03:53:48;;;;;;;1.40;0.60;;;17.30;99.90;;;;;;5120580;27;20416;-64
2021/08/05 03:56:15;;;;;;;1.63;0.50;;;17.60;99.90;;;;;;5120260;27;20446;-64
2021/08/05 03:58:42;;;;;;;0.70;0.50;;;17.60;99.90;;;;;;5119482;28;20426;-63
2021/08/05 04:01:10;;;;;;;1.20;0.60;;;17.60;99.90;;;;;;5120144;28;20894;-63
2021/08/05 04:03:37;;;;;;;1.30;0.60;;;17.60;99.90;;;;;;5119819;27;20454;-62
2021/08/05 04:06:03;;;;;;;0.90;0.50;;;17.40;99.90;;;;;;5120130;28;20408;-62
2021/08/05 04:08:31;;;;;;;0.80;0.60;;;17.30;99.90;;;;;;5120564;27;20474;-62
2021/08/05 04:10:57;;;;;;;1.17;0.70;;;17.20;99.90;;;;;;5120634;27;20515;-62
2021/08/05 04:13:24;;;;;;;0.87;0.60;;;17.10;99.90;;;;;;5120270;28;20416;-63
2021/08/05 04:15:51;;;;;;;0.90;0.60;;;17.20;99.90;;;;;;5120040;27;20411;-62
2021/08/05 04:18:20;;;;;;;1.20;0.70;;;17.20;99.90;;;;;;5119790;27;20731;-62
2021/08/05 04:20:47;;;;;;;0.80;0.60;;;17.30;99.90;;;;;;5121077;28;20424;-63
2021/08/05 04:23:14;;;;;;;0.88;0.60;;;17.20;99.90;;;;;;5121643;27;20709;-62
2021/08/05 04:25:40;;;;;;;1.25;0.52;;;17.20;99.90;;;;;;5119704;27;20460;-62
2021/08/05 04:28:08;;;;;;;1.10;0.70;;;17.20;99.90;;;;;;5121763;28;20422;-63
2021/08/05 04:30:34;;;;;;;0.90;0.60;;;17.10;99.90;;;;;;5121715;27;20453;-62
2021/08/05 04:33:01;;;;;;;1.10;0.50;;;17.00;99.90;;;;;;5121317;27;20910;-64
2021/08/05 04:35:30;;;;;;;1.00;0.60;;;17.30;99.90;;;;;;5121171;27;20427;-62
2021/08/05 04:37:58;;;;;;;1.08;0.70;;;17.30;99.90;;;;;;5121405;27;20408;-63
2021/08/05 04:40:27;;;;;;;2.08;0.70;;;17.40;99.90;;;;;;5121442;27;20420;-62
2021/08/05 04:42:54;;;;;;;1.50;0.70;;;17.20;99.90;;;;;;5115887;28;20728;-63
2021/08/05 04:45:22;;;;;;;1.23;0.68;;;17.10;99.90;;;;;;5116628;28;20430;-62
2021/08/05 04:47:53;;;;;;;0.80;0.55;;;16.90;99.90;;;;;;5116891;28;20416;-62
2021/08/05 04:50:21;;;;;;;0.90;0.60;;;16.80;99.90;;;;;;5116319;28;20440;-63
2021/08/05 04:52:49;;;;;;;1.85;0.70;;;16.80;99.90;;;;;;5115985;28;20466;-63
2021/08/05 04:55:16;;;;;;;1.20;0.60;;;16.90;99.90;;;;;;5116391;28;20727;-62
2021/08/05 04:57:47;;;;;;;2.17;1.20;;;16.90;99.90;;;;;;5116182;28;20610;-63
2021/08/05 05:00:15;;;;;;;0.90;0.70;;;16.80;99.90;;;;;;5117202;28;20431;-62
2021/08/05 05:02:42;;;;;;;1.30;0.80;;;16.80;99.90;;;;;;5117758;28;20439;-62
2021/08/05 05:05:09;;;;;;;2.40;0.70;;;16.70;99.90;;;;;;5115315;28;20424;-62
2021/08/05 05:07:36;;;;;;;1.10;0.80;;;16.60;99.90;;;;;;5116764;28;20434;-62
2021/08/05 05:10:05;;;;;;;1.70;0.70;;;16.60;99.90;;;;;;5116255;28;20432;-62
2021/08/05 05:12:32;;;;;;;1.67;0.80;;;16.60;99.90;;;;;;5116632;28;20712;-62
2021/08/05 05:14:59;;;;;;;1.10;0.80;;;16.60;99.90;;;;;;5116731;28;20526;-62
2021/08/05 05:17:26;;;;;;;1.20;0.80;;;16.60;99.90;;;;;;5116889;28;20836;-62
2021/08/05 05:19:53;;;;;;;1.83;0.70;;;16.60;99.90;;;;;;5116439;27;20426;-61
2021/08/05 05:22:20;;;;;;;1.25;0.80;;;16.60;99.90;;;;;;5117489;28;20505;-61
2021/08/05 05:24:47;;;;;;;1.13;0.70;;;16.50;99.90;;;;;;5115512;28;20507;-63
2021/08/05 05:27:15;;;;;;;2.00;0.80;;;16.50;99.90;;;;;;5116933;28;20416;-63
2021/08/05 05:29:42;;;;;;;1.98;1.00;;;16.50;99.90;;;;;;5117100;28;20432;-63
2021/08/05 05:32:09;;;;;;;2.17;0.73;;;16.50;99.90;;;;;;5116422;28;20424;-63
2021/08/05 05:34:36;;;;;;;1.23;0.70;;;16.60;99.90;;;;;;5116498;28;20446;-62
2021/08/05 05:37:04;;;;;;;1.30;0.80;;;16.70;99.90;;;;;;5115901;28;20459;-62
2021/08/05 05:39:31;;;;;;;4.22;0.70;;;16.70;99.90;;;;;;5116670;28;20424;-63
2021/08/05 05:41:58;;;;;;;1.20;0.80;;;16.80;99.90;;;;;;5113989;28;20915;-62
2021/08/05 05:44:27;;;;;;;2.50;0.70;;;16.80;99.90;;;;;;5098315;28;20924;-63
2021/08/05 05:46:54;;;;;;;1.30;0.80;;;16.70;99.90;;;;;;5096058;28;20524;-63
2021/08/05 05:49:21;;;;;;;2.10;0.80;;;16.70;99.90;;;;;;5095750;28;20443;-63
2021/08/05 05:51:47;;;;;;;2.00;0.80;;;16.70;99.90;;;;;;5094964;28;20425;-63
2021/08/05 05:54:14;;;;;;;1.15;0.80;;;16.60;99.90;;;;;;5094650;28;20452;-63
2021/08/05 05:56:41;;;;;;;1.90;0.80;;;16.70;99.90;;;;;;5095693;28;20424;-62
2021/08/05 05:59:08;;;;;;;1.20;0.60;;;16.70;99.90;;;;;;5096064;28;20429;-62
2021/08/05 06:01:36;;;;;;;1.23;0.70;;;16.70;99.90;;;;;;5095842;28;20476;-62
2021/08/05 06:04:03;;;;;;;1.65;0.73;;;16.80;99.90;;;;;;5095262;28;20717;-60
2021/08/05 06:06:30;;;;;;;2.20;0.80;;;16.90;99.90;;;;;;5095244;28;20476;-63
2021/08/05 06:08:59;;;;;;;0.93;0.60;;;16.90;99.90;;;;;;5093207;28;20436;-62
2021/08/05 06:11:26;;;;;;;2.50;0.80;;;17.10;99.90;;;;;;5095359;28;20455;-62
2021/08/05 06:13:53;;;;;;;1.00;0.70;;;17.20;99.90;;;;;;5089496;28;20789;-62
2021/08/05 06:16:21;;;;;;;1.10;0.70;;;17.20;99.90;;;;;;5073631;28;20423;-59
2021/08/05 06:18:49;;;;;;;2.20;0.90;;;17.20;99.90;;;;;;5074602;28;20427;-59
2021/08/05 06:21:16;;;;;;;1.10;0.70;;;17.30;99.90;;;;;;5074711;28;20427;-59
2021/08/05 06:23:43;;;;;;;1.90;0.70;;;17.40;99.90;;;;;;5072320;28;20438;-59
2021/08/05 06:26:10;;;;;;;1.40;0.70;;;17.50;99.90;;;;;;5074545;28;20811;-59
2021/08/05 06:28:38;;;;;;;1.63;0.68;;;17.60;99.90;;;;;;5075010;28;20503;-60
2021/08/05 06:31:05;;;;;;;1.60;0.70;;;17.60;99.90;;;;;;5073471;28;20431;-60
2021/08/05 06:33:34;;;;;;;1.50;0.60;;;17.60;99.90;;;;;;5089272;28;20505;-59
2021/08/05 06:36:03;;;;;;;1.00;0.70;;;17.70;99.90;;;;;;5073372;28;20433;-60
2021/08/05 06:38:30;;;;;;;0.90;0.60;;;17.80;99.90;;;;;;5074265;28;20419;-60
2021/08/05 06:40:57;;;;;;;1.20;0.60;;;17.80;99.90;;;;;;5074320;28;20422;-60
2021/08/05 06:43:24;;;;;;;0.95;0.60;;;17.90;99.90;;;;;;5073126;28;20420;-60
2021/08/05 06:45:51;;;;;;;0.80;0.60;;;17.90;99.90;;;;;;5070678;28;20420;-61
2021/08/05 06:48:18;;;;;;;1.08;0.70;;;18.00;99.90;;;;;;5072352;28;20887;-60
2021/08/05 06:50:45;;;;;;;1.50;0.60;;;18.10;99.90;;;;;;5072314;28;20801;-61
2021/08/05 06:53:13;;;;;;;1.40;0.65;;;18.10;99.90;;;;;;5070533;28;20511;-59
2021/08/05 06:55:40;;;;;;;1.23;0.70;;;18.10;99.90;;;;;;5072777;28;20428;-61
2021/08/05 06:58:07;;;;;;;1.35;0.50;;;18.30;99.90;;;;;;5070089;28;20419;-60
2021/08/05 07:00:34;;;;;;;1.40;0.60;;;18.60;99.90;;;;;;5069123;28;20430;-59
2021/08/05 07:03:01;;;;;;;1.38;0.60;;;18.80;99.90;;;;;;5069661;28;20700;-59
2021/08/05 07:05:28;;;;;;;0.70;0.50;;;18.80;99.90;;;;;;5069182;28;20513;-59
2021/08/05 07:07:55;;;;;;;1.00;0.60;;;18.80;99.90;;;;;;5070903;28;20427;-59
2021/08/05 07:10:24;;;;;;;0.90;0.60;;;18.90;99.90;;;;;;5070972;28;20482;-59
2021/08/05 07:12:51;;;;;;;0.70;0.50;;;19.00;99.90;;;;;;5072045;28;20866;-59
2021/08/05 07:15:18;;;;;;;0.90;0.50;;;18.90;99.90;;;;;;5074042;28;20427;-60
2021/08/05 07:17:45;;;;;;;0.80;0.50;;;19.00;99.90;;;;;;5074168;28;20419;-59
2021/08/05 07:20:13;;;;;;;1.30;0.60;;;19.00;99.90;;;;;;5072984;28;20442;-60
2021/08/05 07:22:41;;;;;;;0.90;0.50;;;19.10;99.90;;;;;;5071821;28;20420;-60
2021/08/05 07:25:09;;;;;;;0.80;0.50;;;19.30;99.90;;;;;;5071297;28;20428;-61
2021/08/05 07:27:38;;;;;;;1.40;0.60;;;19.30;99.90;;;;;;5072534;28;20517;-60
2021/08/05 07:30:08;;;;;;;0.70;0.40;;;19.50;99.90;;;;;;5071328;28;20862;-62
2021/08/05 07:32:34;;;;;;;1.73;1.00;;;19.50;99.90;;;;;;5072263;28;20503;-60
2021/08/05 07:35:02;;;;;;;0.90;0.50;;;19.60;99.90;;;;;;5071819;28;20536;-59
2021/08/05 07:37:28;;;;;;;0.80;0.50;;;19.70;99.90;;;;;;5072677;28;20456;-59
2021/08/05 07:39:55;;;;;;;1.00;0.70;;;19.70;99.90;;;;;;5072543;28;20559;-60
2021/08/05 07:42:22;;;;;;;0.75;0.50;;;19.70;99.90;;;;;;5072926;28;20726;-59
2021/08/05 07:44:51;;;;;;;1.60;0.50;;;19.80;99.90;;;;;;5073567;28;20528;-59
2021/08/05 07:47:18;;;;;;;0.80;0.50;;;19.90;99.90;;;;;;5073228;28;20428;-60
2021/08/05 07:49:45;;;;;;;1.50;0.50;;;19.80;99.90;;;;;;5075426;28;20431;-59
2021/08/05 07:52:12;;;;;;;0.70;0.50;;;20.00;99.90;;;;;;5072767;28;20760;-60
2021/08/05 07:54:39;;;;;;;0.80;0.50;;;20.10;99.90;;;;;;5073370;28;20756;-62
2021/08/05 07:57:06;;;;;;;0.80;0.50;;;20.20;99.90;;;;;;5073108;28;20512;-62
2021/08/05 07:59:33;;;;;;;1.40;0.50;;;20.50;99.90;;;;;;5072868;28;20699;-60
2021/08/05 08:02:01;;;;;;;0.70;0.40;;;20.60;99.90;;;;;;5072763;28;20455;-62
2021/08/05 08:04:28;;;;;;;0.70;0.40;;;20.50;99.90;;;;;;5073677;28;20433;-61
2021/08/05 08:06:55;;;;;;;1.25;0.40;;;20.70;99.90;;;;;;5072047;28;20510;-62
2021/08/05 08:09:22;;;;;;;0.90;0.52;;;20.90;99.90;;;;;;5072006;28;20425;-61
2021/08/05 08:11:49;;;;;;;1.35;0.60;;;20.80;99.90;;;;;;5072963;28;20426;-61
2021/08/05 08:14:16;;;;;;;0.80;0.70;;;20.60;99.90;;;;;;5072222;28;20799;-61
2021/08/05 08:16:44;;;;;;;1.20;0.60;;;20.30;99.90;;;;;;5074273;28;20433;-61
2021/08/05 08:19:12;;;;;;;1.25;0.60;;;20.20;99.90;;;;;;5076100;28;20419;-62
2021/08/05 08:21:39;;;;;;;1.70;0.50;;;20.30;99.90;;;;;;5076154;28;20423;-62
2021/08/05 08:24:07;;;;;;;1.20;0.50;;;20.30;99.90;;;;;;5075659;28;20423;-62
2021/08/05 08:26:34;;;;;;;0.80;0.50;;;20.40;99.90;;;;;;5077701;28;20423;-62
2021/08/05 08:29:01;;;;;;;0.80;0.60;;;20.60;99.90;;;;;;5077096;28;20696;-62
2021/08/05 08:31:28;;;;;;;1.20;0.60;;;20.70;99.90;;;;;;5074346;28;20547;-62
2021/08/05 08:33:55;;;;;;;1.20;0.50;;;20.80;99.90;;;;;;5073879;28;20835;-62
2021/08/05 08:36:23;;;;;;;0.70;0.50;;;20.70;99.90;;;;;;5075295;28;20421;-62
2021/08/05 08:38:50;;;;;;;0.68;0.50;;;20.70;99.90;;;;;;5075278;28;21024;-64
2021/08/05 08:41:19;;;;;;;0.80;0.50;;;20.80;99.90;;;;;;5075661;28;20415;-61
2021/08/05 08:43:46;;;;;;;0.70;0.40;;;20.80;99.90;;;;;;5075391;28;20419;-61
2021/08/05 08:46:19;;;;;;;0.80;0.50;;;20.90;99.90;;;;;;5074579;28;20518;-63
2021/08/05 08:48:47;;;;;;;0.80;0.40;;;21.00;99.90;;;;;;5073138;28;20431;-62
2021/08/05 08:51:17;;;;;;;1.00;0.50;;;21.10;99.90;;;;;;5073435;28;20982;-63
2021/08/05 08:53:50;;;;;;;0.70;0.50;;;20.80;99.90;;;;;;5074326;28;20522;-62
2021/08/05 08:56:17;;;;;;;0.70;0.50;;;20.70;99.90;;;;;;5075369;28;20426;-62
2021/08/05 08:58:44;;;;;;;0.70;0.50;;;20.80;99.90;;;;;;5076371;28;20419;-63
2021/08/05 09:01:11;;;;;;;0.80;0.40;;;21.10;99.90;;;;;;5075422;28;20519;-62
2021/08/05 09:03:39;;;;;;;1.30;0.47;;;21.30;99.90;;;;;;5074335;28;20418;-62
2021/08/05 09:06:06;;;;;;;1.10;0.50;;;21.50;99.90;;;;;;5076459;28;20412;-62
2021/08/05 09:08:33;;;;;;;0.60;0.40;;;21.20;99.90;;;;;;5075097;28;20443;-62
2021/08/05 09:11:01;;;;;;;1.20;0.50;;;21.30;99.90;;;;;;5089500;28;20746;-63
2021/08/05 09:13:28;;;;;;;0.70;0.40;;;21.20;99.90;;;;;;5094910;28;20424;-63
2021/08/05 09:15:56;;;;;;;0.60;0.50;;;21.10;99.90;;;;;;5093694;28;20453;-62
2021/08/05 09:18:29;;;;;;;0.80;0.43;;;21.10;99.90;;;;;;5093956;28;20513;-62
2021/08/05 09:21:21;;;;;;;0.90;0.50;;;21.00;99.90;;;;;;5093800;28;20497;-62
2021/08/05 09:23:55;;;;;;;0.70;0.50;;;21.20;99.90;;;;;;5071847;28;20724;-61
2021/08/05 09:26:28;;;;;;;0.60;0.40;;;21.70;99.90;;;;;;5093168;28;20422;-61
2021/08/05 09:29:16;;;;;;;0.90;0.43;;;21.60;99.90;;;;;;5094778;28;20425;-58
2021/08/05 09:31:45;;;;;;;0.80;0.50;;;21.60;99.90;;;;;;5093385;28;20738;-65
2021/08/05 09:34:14;;;;;;;1.25;0.50;;;21.70;99.90;;;;;;5093867;28;20412;-65
2021/08/05 09:36:42;;;;;;;0.60;0.40;;;21.70;99.90;;;;;;5093428;28;20815;-66
2021/08/05 09:39:21;;;;;;;0.60;0.40;;;21.40;99.90;;;;;;5092458;28;20521;-65
2021/08/05 09:42:00;;;;;;;0.60;0.30;;;21.40;99.90;;;;;;5093823;28;20428;-64
2021/08/05 09:44:28;;;;;;;0.70;0.40;;;21.40;99.90;;;;;;5093354;28;20907;-65
2021/08/05 09:47:03;;;;;;;0.60;0.40;;;21.70;99.90;;;;;;5079263;28;20437;-64
2021/08/05 09:49:30;;;;;;;0.60;0.32;;;21.60;99.90;;;;;;5071317;28;20415;-64
2021/08/05 09:51:57;;;;;;;0.70;0.40;;;21.90;99.90;;;;;;5070379;28;20976;-64
2021/08/05 09:54:41;;;;;;;0.57;0.30;;;22.30;99.90;;;;;;5069866;28;20424;-64
2021/08/05 09:57:12;;;;;;;0.70;0.40;;;22.20;99.90;;;;;;5069300;28;20474;-64
2021/08/05 09:59:53;;;;;;;0.60;0.40;;;22.40;99.90;;;;;;5069779;28;20517;-64
2021/08/05 10:02:21;;;;;;;0.70;0.40;;;22.50;99.90;;;;;;5070538;28;20423;-64
2021/08/05 10:04:48;;;;;;;0.57;0.40;;;22.70;99.90;;;;;;5071041;28;20420;-65
2021/08/05 10:07:16;;;;;;;0.60;0.40;;;22.60;99.90;;;;;;5070295;28;20427;-64
2021/08/05 10:09:44;;;;;;;0.70;0.50;;;22.80;99.90;;;;;;5071042;28;20426;-63
2021/08/05 10:12:21;;;;;;;0.80;0.50;;;23.20;99.90;;;;;;5071854;28;20501;-64
2021/08/05 10:14:50;;;;;;;0.90;0.70;;;23.30;99.90;;;;;;5071762;28;20526;-65
2021/08/05 10:17:18;;;;;;;0.60;0.40;;;23.10;99.90;;;;;;5071927;28;20535;-66
2021/08/05 10:19:47;;;;;;;0.50;0.30;;;23.10;99.90;;;;;;5071207;28;20428;-65
2021/08/05 10:22:15;;;;;;;1.00;0.40;;;23.10;99.90;;;;;;5073265;28;20862;-64
2021/08/05 10:24:46;;;;;;;0.50;0.30;;;22.70;99.90;;;;;;5072276;28;20432;-64
2021/08/05 10:27:15;;;;;;;0.80;0.32;;;22.50;99.90;;;;;;5072575;28;20743;-64
2021/08/05 10:29:44;;;;;;;0.50;0.30;;;22.60;99.90;;;;;;5073569;28;20423;-64
2021/08/05 10:32:13;;;;;;;0.90;0.40;;;22.70;99.90;;;;;;5072275;28;20891;-63
2021/08/05 10:34:41;;;;;;;0.80;0.30;;;23.00;99.90;;;;;;5070945;28;20423;-65
2021/08/05 10:37:11;;;;;;;0.70;0.30;;;23.00;99.90;;;;;;5068030;28;20520;-66
2021/08/05 10:39:39;;;;;;;0.50;0.30;;;23.70;99.90;;;;;;5066017;28;20431;-66
2021/08/05 10:42:08;;;;;;;0.50;0.30;;;24.00;99.90;;;;;;5083759;28;20508;-63
2021/08/05 10:44:36;;;;;;;0.40;0.20;;;24.40;99.90;;;;;;5091656;28;20627;-65
2021/08/05 10:47:08;;;;;;;0.80;0.30;;;24.70;99.90;;;;;;5080662;28;20443;-66
2021/08/05 10:49:36;;;;;;;0.80;0.30;;;25.00;99.90;;;;;;5070629;28;20456;-58
2021/08/05 10:52:03;;;;;;;0.40;0.20;;;24.80;99.90;;;;;;5071492;28;20432;-59
2021/08/05 10:54:50;;;;;;;0.52;0.30;;;24.60;99.90;;;;;;5072414;28;20458;-59
2021/08/05 10:57:19;;;;;;;0.50;0.30;;;24.40;99.90;;;;;;5071822;28;20882;-58
2021/08/05 11:00:00;;;;;;;0.60;0.30;;;24.20;99.90;;;;;;5071404;28;20863;-59
2021/08/05 11:02:45;;;;;;;1.60;0.40;;;24.60;99.90;;;;;;5074066;28;20725;-58
2021/08/05 11:05:33;;;;;;;0.70;0.30;;;25.10;99.90;;;;;;5071970;28;20429;-60
2021/08/05 11:08:24;;;;;;;0.50;0.30;;;26.00;99.90;;;;;;5071703;28;20426;-58
2021/08/05 11:11:11;;;;;;;2.83;0.40;;;26.20;99.90;;;;;;5070388;28;20439;-62
2021/08/05 11:13:38;;;;;;;0.60;0.30;;;25.80;99.90;;;;;;5072944;28;20427;-60
2021/08/05 11:16:05;;;;;;;0.40;0.30;;;25.60;99.90;;;;;;5072125;28;20438;-59
2021/08/05 11:18:33;;;;;;;0.52;0.30;;;25.90;99.90;;;;;;5072344;28;20418;-60
2021/08/05 11:21:26;;;;;;;0.65;0.40;;;25.70;99.90;;;;;;5087949;28;20495;-54
2021/08/05 11:23:54;;;;;;;0.52;0.30;;;25.60;99.90;;;;;;5089434;28;20829;-51
2021/08/05 11:26:22;;;;;;;0.50;0.30;;;25.50;99.90;;;;;;5091098;28;20461;-53
2021/08/05 11:28:51;;;;;;;0.40;0.20;;;25.60;99.90;;;;;;5092311;28;20512;-56
2021/08/05 11:31:30;;;;;;;0.70;0.30;;;25.20;99.90;;;;;;5092947;28;20433;-51
2021/08/05 11:33:59;;;;;;;0.40;0.30;;;25.20;99.90;;;;;;5093754;28;20452;-55
2021/08/05 11:36:33;;;;;;;0.50;0.30;;;25.30;99.90;;;;;;5093420;28;20429;-54
2021/08/05 11:39:03;;;;;;;0.50;0.30;;;25.30;99.90;;;;;;5093754;28;20425;-54
2021/08/05 11:41:45;;;;;;;0.57;0.40;;;25.20;99.90;;;;;;5092734;28;20526;-55
2021/08/05 11:44:24;;;;;;;0.40;0.30;;;25.30;99.90;;;;;;5092160;28;20464;-52
2021/08/05 11:47:11;;;;;;;0.50;0.30;;;25.00;99.90;;;;;;5092377;28;20423;-52
2021/08/05 11:49:40;;;;;;;0.50;0.30;;;24.80;99.90;;;;;;5093353;28;20465;-55
2021/08/05 11:52:09;;;;;;;0.60;0.30;;;24.50;99.90;;;;;;5095296;28;20536;-53
2021/08/05 11:54:37;;;;;;;0.50;0.35;;;24.40;99.90;;;;;;5095791;28;20432;-52
2021/08/05 11:57:06;;;;;;;0.50;0.30;;;24.30;99.90;;;;;;5096187;28;20418;-53
2021/08/05 11:59:34;;;;;;;0.73;0.30;;;24.60;99.90;;;;;;5096339;28;20439;-51
2021/08/05 12:02:05;;;;;;;0.50;0.30;;;24.70;99.90;;;;;;5096603;28;20498;-55
2021/08/05 12:04:32;;;;;;;0.70;0.30;;;25.00;99.90;;;;;;5096633;28;20792;-51
2021/08/05 12:07:23;;;;;;;0.50;0.30;;;25.20;99.90;;;;;;5097686;28;20729;-54
2021/08/05 12:09:57;;;;;;;0.50;0.20;;;25.50;99.90;;;;;;5096074;28;20485;-51
2021/08/05 12:12:25;;;;;;;0.50;0.30;;;25.60;99.90;;;;;;5095696;28;20434;-52
2021/08/05 12:14:53;;;;;;;0.60;0.30;;;25.70;99.90;;;;;;5094106;28;20422;-53
2021/08/05 12:17:38;;;;;;;0.52;0.30;;;26.10;99.90;;;;;;5095435;28;20698;-53
2021/08/05 12:20:11;;;;;;;0.60;0.30;;;26.00;99.90;;;;;;5094495;28;20422;-52
2021/08/05 12:22:42;;;;;;;1.30;0.30;;;26.20;99.90;;;;;;5092773;28;20502;-52
2021/08/05 12:25:27;;;;;;;1.83;0.40;;;26.30;99.90;;;;;;5089418;28;20426;-53
2021/08/05 12:27:56;;;;;;;0.60;0.40;;;26.50;99.90;;;;;;5077258;28;20458;-52
2021/08/05 12:30:36;;;;;;;0.70;0.30;;;26.70;99.90;;;;;;5077083;28;20411;-55
2021/08/05 12:33:05;;;;;;;0.50;0.30;;;26.20;99.90;;;;;;5077282;28;20828;-53
2021/08/05 12:35:33;;;;;;;0.50;0.20;;;25.70;99.90;;;;;;5075660;28;20588;-54
2021/08/05 12:38:03;;;;;;;0.50;0.30;;;24.90;99.90;;;;;;5076254;28;20831;-54
2021/08/05 12:40:31;;;;;;;0.40;0.30;;;24.70;99.90;;;;;;5075910;28;20534;-53
2021/08/05 12:43:04;;;;;;;0.40;0.20;;;24.70;99.90;;;;;;5073881;28;20817;-54
2021/08/05 12:45:35;;;;;;;0.40;0.25;;;24.60;99.90;;;;;;5083808;28;20428;-54
2021/08/05 12:48:03;;;;;;;0.50;0.30;;;24.40;99.90;;;;;;5093920;28;20439;-51
2021/08/05 12:50:31;;;;;;;0.95;0.30;;;24.20;99.90;;;;;;5092778;28;20947;-52
2021/08/05 12:52:58;;;;;;;0.40;0.30;;;24.10;99.90;;;;;;5093922;28;20896;-50
2021/08/05 12:55:26;;;;;;;0.50;0.30;;;23.90;99.90;;;;;;5092520;28;20520;-51
2021/08/05 12:57:53;;;;;;;0.90;0.40;;;23.80;99.90;;;;;;5093752;28;20833;-50